Montauk, NY (11954)

10:05 AM EDT on August 31, 2015 (GMT -0400)
montauk | | Change Station
CLOSE
Current Station
Personal Weather Station
Location: Montauk, NY
Elevation: 118 ft
Nearby Weather Stations

Elev 118 ft 41.06 °N, 71.95 °W | Updated 56 seconds ago

Mostly Cloudy
Mostly Cloudy
77.0 °F
Feels Like 78 °F
N
6.7
Wind Variable Wind from NNW
Gusts 9.8 mph

Today
High -- | Low -- °F
--% Chance of Precip.
Yesterday
High -- | Low -- °F
Precip. -- in
6:13 AM 7:22 PM
Waning Gibbous, 95% visible
Pressure 30.00 in
Visibility 6.0 miles
Clouds Mostly Cloudy 11000 ft
Heat Index 78 °F
Dew Point 74 °F
Humidity 91%
Rainfall 0.00 in
Snow Depth Not available.
UV 3.0 out of 12
Pollen 9.60 out of 12
Air Quality Not available.
Flu Activity Not available.
METAR KGON 311256Z 24007KT 6SM HZ BKN110 24/22 A3000 RMK AO2 SLP158 T02440222 $
Pressure 30.00 in
Visibility 6.0 miles
Clouds Mostly Cloudy 11000 ft
Heat Index 78 °F
Dew Point 74 °F
Humidity 91%
Rainfall 0.00 in
Snow Depth Not available.
UV 3.0 out of 12
Pollen 9.60 out of 12
Air Quality Not available.
Flu Activity Not available.
METAR KGON 311256Z 24007KT 6SM HZ BKN110 24/22 A3000 RMK AO2 SLP158 T02440222 $

10-Day Weather Forecast

×

Almanac

Astronomy

Aug. 31, 2015 Rise Set
Actual Time
Civil Twilight
Nautical Twilight
Astronomical Twilight
Moon
Length of Visible Light
Length of Day
Tomorrow will be .
, % of the Moon is Illuminated

Today's Extremes

State Highs State Lows

Community

WunderPhotos

Upload Photos

1,851,243 photos uploaded!

WunderBlogs® & News

Nearby

Air Quality

  Air Quality AQ Index Pollutant
Not available.

Snow Depth

Station Depth Elevation

Earthquake Activity

City Distance Mag. Time & Date
Minimum magnitude displayed is 2.5.

Coastal Water Temperatures

Place Temperature

Stations

Nearby Weather Stations

Station Location Temp. Windchill Dew Point Humidity Wind Precip. Elev Updated Type